sensor_id;sensor_type;location;lat;lon;timestamp;temperature;humidity
13488;DHT22;6816;48.506;9.050;2022-12-29T00:00:45;5.40;99.90
13488;DHT22;6816;48.506;9.050;2022-12-29T00:03:46;5.40;99.90
13488;DHT22;6816;48.506;9.050;2022-12-29T00:06:47;5.40;99.90
13488;DHT22;6816;48.506;9.050;2022-12-29T00:09:48;5.50;99.90
13488;DHT22;6816;48.506;9.050;2022-12-29T00:12:49;5.50;99.90
13488;DHT22;6816;48.506;9.050;2022-12-29T00:16:08;5.60;99.90
13488;DHT22;6816;48.506;9.050;2022-12-29T00:19:09;5.60;99.90
13488;DHT22;6816;48.506;9.050;2022-12-29T00:22:28;5.60;99.90
13488;DHT22;6816;48.506;9.050;2022-12-29T00:25:47;5.80;99.90
13488;DHT22;6816;48.506;9.050;2022-12-29T00:29:07;5.80;99.90
13488;DHT22;6816;48.506;9.050;2022-12-29T00:32:27;5.90;99.90
13488;DHT22;6816;48.506;9.050;2022-12-29T00:35:52;5.90;99.90
13488;DHT22;6816;48.506;9.050;2022-12-29T00:38:59;5.80;99.90
13488;DHT22;6816;48.506;9.050;2022-12-29T00:42:19;5.80;99.90
13488;DHT22;6816;48.506;9.050;2022-12-29T00:45:43;5.80;99.90
13488;DHT22;6816;48.506;9.050;2022-12-29T00:48:43;5.80;99.90
13488;DHT22;6816;48.506;9.050;2022-12-29T00:52:07;5.80;99.90
13488;DHT22;6816;48.506;9.050;2022-12-29T00:55:08;5.80;99.90
13488;DHT22;6816;48.506;9.050;2022-12-29T00:58:09;5.90;99.90
13488;DHT22;6816;48.506;9.050;2022-12-29T01:01:09;5.90;99.90
13488;DHT22;6816;48.506;9.050;2022-12-29T01:04:10;6.00;99.90
13488;DHT22;6816;48.506;9.050;2022-12-29T01:07:11;6.10;99.90
13488;DHT22;6816;48.506;9.050;2022-12-29T01:10:12;6.10;99.90
13488;DHT22;6816;48.506;9.050;2022-12-29T01:13:12;6.10;99.90
13488;DHT22;6816;48.506;9.050;2022-12-29T01:16:13;6.20;99.90
13488;DHT22;6816;48.506;9.050;2022-12-29T01:19:14;6.30;99.90
13488;DHT22;6816;48.506;9.050;2022-12-29T01:22:15;6.30;99.90
13488;DHT22;6816;48.506;9.050;2022-12-29T01:25:16;6.30;99.90
13488;DHT22;6816;48.506;9.050;2022-12-29T01:28:16;6.30;99.90
13488;DHT22;6816;48.506;9.050;2022-12-29T01:31:17;6.30;99.90
13488;DHT22;6816;48.506;9.050;2022-12-29T01:34:18;6.40;99.90
13488;DHT22;6816;48.506;9.050;2022-12-29T01:37:18;6.30;99.90
13488;DHT22;6816;48.506;9.050;2022-12-29T01:40:19;6.40;99.90
13488;DHT22;6816;48.506;9.050;2022-12-29T01:43:20;6.40;99.90
13488;DHT22;6816;48.506;9.050;2022-12-29T01:49:36;6.50;99.90
13488;DHT22;6816;48.506;9.050;2022-12-29T01:52:40;6.50;99.90
13488;DHT22;6816;48.506;9.050;2022-12-29T01:55:48;6.60;99.90
13488;DHT22;6816;48.506;9.050;2022-12-29T01:58:58;6.50;99.90
13488;DHT22;6816;48.506;9.050;2022-12-29T02:02:01;6.60;99.90
13488;DHT22;6816;48.506;9.050;2022-12-29T02:05:24;6.60;99.90
13488;DHT22;6816;48.506;9.050;2022-12-29T02:08:28;6.60;99.90
13488;DHT22;6816;48.506;9.050;2022-12-29T02:11:30;6.80;99.90
13488;DHT22;6816;48.506;9.050;2022-12-29T02:14:31;6.70;99.90
13488;DHT22;6816;48.506;9.050;2022-12-29T02:31:00;6.90;99.90
13488;DHT22;6816;48.506;9.050;2022-12-29T02:34:07;6.90;99.90
13488;DHT22;6816;48.506;9.050;2022-12-29T02:37:25;6.90;99.90
13488;DHT22;6816;48.506;9.050;2022-12-29T02:43:53;7.00;99.90
13488;DHT22;6816;48.506;9.050;2022-12-29T02:50:24;7.10;99.90
13488;DHT22;6816;48.506;9.050;2022-12-29T02:53:26;7.10;99.90
13488;DHT22;6816;48.506;9.050;2022-12-29T02:56:46;7.20;99.90
13488;DHT22;6816;48.506;9.050;2022-12-29T03:00:08;7.40;99.90
13488;DHT22;6816;48.506;9.050;2022-12-29T03:16:48;8.40;99.90
13488;DHT22;6816;48.506;9.050;2022-12-29T03:19:52;8.50;99.90
13488;DHT22;6816;48.506;9.050;2022-12-29T03:22:59;8.70;99.90
13488;DHT22;6816;48.506;9.050;2022-12-29T03:26:03;8.70;99.90
13488;DHT22;6816;48.506;9.050;2022-12-29T03:29:05;8.90;99.90
13488;DHT22;6816;48.506;9.050;2022-12-29T03:32:09;8.80;99.90
13488;DHT22;6816;48.506;9.050;2022-12-29T03:35:14;8.90;99.90
13488;DHT22;6816;48.506;9.050;2022-12-29T03:41:42;9.00;99.90
13488;DHT22;6816;48.506;9.050;2022-12-29T03:44:45;9.00;99.90
13488;DHT22;6816;48.506;9.050;2022-12-29T03:47:46;9.10;99.90
13488;DHT22;6816;48.506;9.050;2022-12-29T03:50:47;9.10;99.90
13488;DHT22;6816;48.506;9.050;2022-12-29T03:53:47;9.20;99.90
13488;DHT22;6816;48.506;9.050;2022-12-29T03:56:48;9.30;99.90
13488;DHT22;6816;48.506;9.050;2022-12-29T03:59:48;9.40;99.90
13488;DHT22;6816;48.506;9.050;2022-12-29T04:02:49;9.60;99.90
13488;DHT22;6816;48.506;9.050;2022-12-29T04:05:50;9.60;99.90
13488;DHT22;6816;48.506;9.050;2022-12-29T04:08:50;9.70;99.90
13488;DHT22;6816;48.506;9.050;2022-12-29T04:11:51;9.80;99.90
13488;DHT22;6816;48.506;9.050;2022-12-29T04:14:51;10.00;99.90
13488;DHT22;6816;48.506;9.050;2022-12-29T04:17:52;9.90;99.90
13488;DHT22;6816;48.506;9.050;2022-12-29T04:20:53;10.00;99.90
13488;DHT22;6816;48.506;9.050;2022-12-29T04:24:04;10.10;99.90
13488;DHT22;6816;48.506;9.050;2022-12-29T04:27:06;10.20;99.90
13488;DHT22;6816;48.506;9.050;2022-12-29T04:30:07;10.20;99.90
13488;DHT22;6816;48.506;9.050;2022-12-29T04:33:08;10.20;99.90
13488;DHT22;6816;48.506;9.050;2022-12-29T04:36:09;10.30;99.90
13488;DHT22;6816;48.506;9.050;2022-12-29T04:39:10;10.10;99.90
13488;DHT22;6816;48.506;9.050;2022-12-29T04:42:10;10.10;99.90
13488;DHT22;6816;48.506;9.050;2022-12-29T04:45:11;10.00;99.90
13488;DHT22;6816;48.506;9.050;2022-12-29T04:48:12;10.00;99.90
13488;DHT22;6816;48.506;9.050;2022-12-29T04:51:13;9.90;99.90
13488;DHT22;6816;48.506;9.050;2022-12-29T04:54:13;9.80;99.90
13488;DHT22;6816;48.506;9.050;2022-12-29T04:57:14;9.80;99.90
13488;DHT22;6816;48.506;9.050;2022-12-29T05:00:15;9.70;99.90
13488;DHT22;6816;48.506;9.050;2022-12-29T05:03:15;9.70;99.90
13488;DHT22;6816;48.506;9.050;2022-12-29T05:06:16;9.60;99.90
13488;DHT22;6816;48.506;9.050;2022-12-29T05:09:16;9.60;99.90
13488;DHT22;6816;48.506;9.050;2022-12-29T05:12:17;9.60;99.90
13488;DHT22;6816;48.506;9.050;2022-12-29T05:15:18;9.60;99.90
13488;DHT22;6816;48.506;9.050;2022-12-29T05:18:19;9.60;99.90
13488;DHT22;6816;48.506;9.050;2022-12-29T05:21:19;9.60;99.90
13488;DHT22;6816;48.506;9.050;2022-12-29T05:24:20;9.60;99.90
13488;DHT22;6816;48.506;9.050;2022-12-29T05:27:21;9.60;99.90
13488;DHT22;6816;48.506;9.050;2022-12-29T05:30:21;9.60;99.90
13488;DHT22;6816;48.506;9.050;2022-12-29T05:33:22;9.70;99.90
13488;DHT22;6816;48.506;9.050;2022-12-29T05:36:22;9.60;99.90
13488;DHT22;6816;48.506;9.050;2022-12-29T05:39:23;9.60;99.90
13488;DHT22;6816;48.506;9.050;2022-12-29T05:42:24;9.60;99.90
13488;DHT22;6816;48.506;9.050;2022-12-29T05:45:24;9.50;99.90
13488;DHT22;6816;48.506;9.050;2022-12-29T05:48:25;9.50;99.90
13488;DHT22;6816;48.506;9.050;2022-12-29T05:51:25;9.50;99.90
13488;DHT22;6816;48.506;9.050;2022-12-29T05:54:26;9.50;99.90
13488;DHT22;6816;48.506;9.050;2022-12-29T05:57:27;9.50;99.90
13488;DHT22;6816;48.506;9.050;2022-12-29T06:00:27;9.50;99.90
13488;DHT22;6816;48.506;9.050;2022-12-29T06:03:28;9.60;99.90
13488;DHT22;6816;48.506;9.050;2022-12-29T06:06:28;9.70;99.90
13488;DHT22;6816;48.506;9.050;2022-12-29T06:09:29;9.80;99.90
13488;DHT22;6816;48.506;9.050;2022-12-29T06:12:30;10.00;99.90
13488;DHT22;6816;48.506;9.050;2022-12-29T06:15:31;10.00;99.90
13488;DHT22;6816;48.506;9.050;2022-12-29T06:18:31;10.20;99.90
13488;DHT22;6816;48.506;9.050;2022-12-29T06:21:32;10.20;99.90
13488;DHT22;6816;48.506;9.050;2022-12-29T06:24:32;10.30;99.90
13488;DHT22;6816;48.506;9.050;2022-12-29T06:27:33;10.30;99.90
13488;DHT22;6816;48.506;9.050;2022-12-29T06:30:34;10.30;99.90
13488;DHT22;6816;48.506;9.050;2022-12-29T06:33:34;10.40;99.90
13488;DHT22;6816;48.506;9.050;2022-12-29T06:36:35;10.40;99.90
13488;DHT22;6816;48.506;9.050;2022-12-29T06:39:36;10.50;99.90
13488;DHT22;6816;48.506;9.050;2022-12-29T06:42:36;10.60;99.90
13488;DHT22;6816;48.506;9.050;2022-12-29T06:45:40;10.70;99.90
13488;DHT22;6816;48.506;9.050;2022-12-29T06:48:41;10.70;99.90
13488;DHT22;6816;48.506;9.050;2022-12-29T06:51:42;10.90;99.90
13488;DHT22;6816;48.506;9.050;2022-12-29T06:54:43;11.00;99.90
13488;DHT22;6816;48.506;9.050;2022-12-29T06:57:44;11.10;99.90
13488;DHT22;6816;48.506;9.050;2022-12-29T07:00:44;11.20;99.90
13488;DHT22;6816;48.506;9.050;2022-12-29T07:03:45;11.30;99.90
13488;DHT22;6816;48.506;9.050;2022-12-29T07:06:45;11.40;99.90
13488;DHT22;6816;48.506;9.050;2022-12-29T07:09:46;11.50;99.90
13488;DHT22;6816;48.506;9.050;2022-12-29T07:12:47;11.70;99.90
13488;DHT22;6816;48.506;9.050;2022-12-29T07:15:47;11.80;99.90
13488;DHT22;6816;48.506;9.050;2022-12-29T07:18:48;11.90;99.90
13488;DHT22;6816;48.506;9.050;2022-12-29T07:21:49;12.00;99.90
13488;DHT22;6816;48.506;9.050;2022-12-29T07:24:49;12.10;99.90
13488;DHT22;6816;48.506;9.050;2022-12-29T07:27:50;12.10;99.90
13488;DHT22;6816;48.506;9.050;2022-12-29T07:30:50;12.20;99.90
13488;DHT22;6816;48.506;9.050;2022-12-29T07:33:51;12.20;99.90
13488;DHT22;6816;48.506;9.050;2022-12-29T07:36:52;12.30;99.90
13488;DHT22;6816;48.506;9.050;2022-12-29T07:39:53;12.30;99.90
13488;DHT22;6816;48.506;9.050;2022-12-29T07:42:53;12.30;99.90
13488;DHT22;6816;48.506;9.050;2022-12-29T07:45:54;12.30;99.90
13488;DHT22;6816;48.506;9.050;2022-12-29T07:48:56;12.40;99.90
13488;DHT22;6816;48.506;9.050;2022-12-29T07:51:57;12.40;99.90
13488;DHT22;6816;48.506;9.050;2022-12-29T07:54:57;12.50;99.90
13488;DHT22;6816;48.506;9.050;2022-12-29T07:57:58;12.50;99.90
13488;DHT22;6816;48.506;9.050;2022-12-29T08:00:58;12.60;99.90
13488;DHT22;6816;48.506;9.050;2022-12-29T08:03:59;12.70;99.90
13488;DHT22;6816;48.506;9.050;2022-12-29T08:07:00;12.70;99.90
13488;DHT22;6816;48.506;9.050;2022-12-29T08:10:00;12.80;99.90
13488;DHT22;6816;48.506;9.050;2022-12-29T08:13:01;12.90;99.90
13488;DHT22;6816;48.506;9.050;2022-12-29T08:16:02;13.00;99.90
13488;DHT22;6816;48.506;9.050;2022-12-29T08:19:03;13.10;99.90
13488;DHT22;6816;48.506;9.050;2022-12-29T08:22:05;13.10;99.90
13488;DHT22;6816;48.506;9.050;2022-12-29T08:25:06;13.20;99.90
13488;DHT22;6816;48.506;9.050;2022-12-29T08:28:07;13.30;99.90
13488;DHT22;6816;48.506;9.050;2022-12-29T08:31:07;13.30;99.90
13488;DHT22;6816;48.506;9.050;2022-12-29T08:34:08;13.40;99.90
13488;DHT22;6816;48.506;9.050;2022-12-29T08:37:09;13.40;99.90
13488;DHT22;6816;48.506;9.050;2022-12-29T08:40:09;13.50;99.90
13488;DHT22;6816;48.506;9.050;2022-12-29T08:43:10;13.60;99.90
13488;DHT22;6816;48.506;9.050;2022-12-29T08:46:11;13.60;99.90
13488;DHT22;6816;48.506;9.050;2022-12-29T08:49:11;13.70;99.90
13488;DHT22;6816;48.506;9.050;2022-12-29T08:52:12;13.70;99.90
13488;DHT22;6816;48.506;9.050;2022-12-29T08:55:12;13.70;99.90
13488;DHT22;6816;48.506;9.050;2022-12-29T08:58:13;13.80;99.90
13488;DHT22;6816;48.506;9.050;2022-12-29T09:01:15;13.80;99.90
13488;DHT22;6816;48.506;9.050;2022-12-29T09:04:15;13.80;99.90
13488;DHT22;6816;48.506;9.050;2022-12-29T09:07:16;13.80;99.90
13488;DHT22;6816;48.506;9.050;2022-12-29T09:10:16;13.80;99.90
13488;DHT22;6816;48.506;9.050;2022-12-29T09:13:17;13.90;99.90
13488;DHT22;6816;48.506;9.050;2022-12-29T09:16:20;13.90;99.90
13488;DHT22;6816;48.506;9.050;2022-12-29T09:19:21;13.90;99.90
13488;DHT22;6816;48.506;9.050;2022-12-29T09:22:21;13.90;99.90
13488;DHT22;6816;48.506;9.050;2022-12-29T09:25:22;13.90;99.90
13488;DHT22;6816;48.506;9.050;2022-12-29T09:28:24;14.10;99.90
13488;DHT22;6816;48.506;9.050;2022-12-29T09:31:25;14.00;99.90
13488;DHT22;6816;48.506;9.050;2022-12-29T09:34:25;14.00;99.90
13488;DHT22;6816;48.506;9.050;2022-12-29T09:37:26;14.00;99.90
13488;DHT22;6816;48.506;9.050;2022-12-29T09:40:32;14.10;99.90
13488;DHT22;6816;48.506;9.050;2022-12-29T09:47:05;14.10;99.90
13488;DHT22;6816;48.506;9.050;2022-12-29T09:50:33;14.10;99.90
13488;DHT22;6816;48.506;9.050;2022-12-29T09:53:42;14.20;99.90
13488;DHT22;6816;48.506;9.050;2022-12-29T09:56:45;14.20;99.90
13488;DHT22;6816;48.506;9.050;2022-12-29T09:59:46;14.20;99.90
13488;DHT22;6816;48.506;9.050;2022-12-29T10:02:56;14.30;99.90
13488;DHT22;6816;48.506;9.050;2022-12-29T10:16:07;14.30;99.90
13488;DHT22;6816;48.506;9.050;2022-12-29T10:26:16;14.30;99.90
13488;DHT22;6816;48.506;9.050;2022-12-29T10:29:25;14.30;99.90
13488;DHT22;6816;48.506;9.050;2022-12-29T10:32:38;14.30;99.90
13488;DHT22;6816;48.506;9.050;2022-12-29T10:35:40;14.30;99.90
13488;DHT22;6816;48.506;9.050;2022-12-29T10:38:48;14.30;99.90
13488;DHT22;6816;48.506;9.050;2022-12-29T10:41:59;14.30;99.90
13488;DHT22;6816;48.506;9.050;2022-12-29T10:45:04;14.30;99.90
13488;DHT22;6816;48.506;9.050;2022-12-29T10:48:11;14.30;99.90
13488;DHT22;6816;48.506;9.050;2022-12-29T10:51:27;14.30;99.90
13488;DHT22;6816;48.506;9.050;2022-12-29T10:54:31;14.30;99.90
13488;DHT22;6816;48.506;9.050;2022-12-29T10:57:38;14.30;99.90
13488;DHT22;6816;48.506;9.050;2022-12-29T11:00:41;14.30;99.90
13488;DHT22;6816;48.506;9.050;2022-12-29T11:03:48;14.30;99.90
13488;DHT22;6816;48.506;9.050;2022-12-29T11:06:51;14.30;99.90
13488;DHT22;6816;48.506;9.050;2022-12-29T11:09:52;14.30;99.90
13488;DHT22;6816;48.506;9.050;2022-12-29T11:13:05;14.40;99.90
13488;DHT22;6816;48.506;9.050;2022-12-29T11:16:12;14.40;99.90
13488;DHT22;6816;48.506;9.050;2022-12-29T11:19:24;14.50;99.90
13488;DHT22;6816;48.506;9.050;2022-12-29T11:22:27;14.60;99.90
13488;DHT22;6816;48.506;9.050;2022-12-29T11:25:28;14.60;99.90
13488;DHT22;6816;48.506;9.050;2022-12-29T11:28:29;14.60;99.90
13488;DHT22;6816;48.506;9.050;2022-12-29T11:31:52;14.60;99.90
13488;DHT22;6816;48.506;9.050;2022-12-29T11:34:55;14.50;99.90
13488;DHT22;6816;48.506;9.050;2022-12-29T11:37:57;14.50;99.90
13488;DHT22;6816;48.506;9.050;2022-12-29T11:40:58;14.40;99.90
13488;DHT22;6816;48.506;9.050;2022-12-29T11:44:02;14.40;99.90
13488;DHT22;6816;48.506;9.050;2022-12-29T11:47:19;14.40;99.90
13488;DHT22;6816;48.506;9.050;2022-12-29T11:50:35;14.60;99.90
13488;DHT22;6816;48.506;9.050;2022-12-29T11:53:43;14.80;99.90
13488;DHT22;6816;48.506;9.050;2022-12-29T11:56:46;14.90;99.90
13488;DHT22;6816;48.506;9.050;2022-12-29T11:59:57;15.00;99.90
13488;DHT22;6816;48.506;9.050;2022-12-29T12:03:21;15.00;99.90
13488;DHT22;6816;48.506;9.050;2022-12-29T12:06:23;15.00;99.90
13488;DHT22;6816;48.506;9.050;2022-12-29T12:09:31;15.00;99.90
13488;DHT22;6816;48.506;9.050;2022-12-29T12:12:44;14.90;99.90
13488;DHT22;6816;48.506;9.050;2022-12-29T12:16:26;14.80;99.90
13488;DHT22;6816;48.506;9.050;2022-12-29T12:19:46;14.70;99.90
13488;DHT22;6816;48.506;9.050;2022-12-29T12:23:17;14.70;99.90
13488;DHT22;6816;48.506;9.050;2022-12-29T12:26:32;14.60;99.90
13488;DHT22;6816;48.506;9.050;2022-12-29T12:33:31;14.50;99.90
13488;DHT22;6816;48.506;9.050;2022-12-29T12:40:21;14.40;99.90
13488;DHT22;6816;48.506;9.050;2022-12-29T13:00:18;14.30;99.90
13488;DHT22;6816;48.506;9.050;2022-12-29T13:03:26;14.30;99.90
13488;DHT22;6816;48.506;9.050;2022-12-29T13:10:03;14.30;99.90
13488;DHT22;6816;48.506;9.050;2022-12-29T13:16:37;14.30;99.90
13488;DHT22;6816;48.506;9.050;2022-12-29T13:19:41;14.20;99.90
13488;DHT22;6816;48.506;9.050;2022-12-29T13:22:56;14.20;99.90
13488;DHT22;6816;48.506;9.050;2022-12-29T13:26:25;14.20;99.90
13488;DHT22;6816;48.506;9.050;2022-12-29T13:30:04;14.20;99.90
13488;DHT22;6816;48.506;9.050;2022-12-29T13:33:28;14.20;99.90
13488;DHT22;6816;48.506;9.050;2022-12-29T13:36:42;14.20;99.90
13488;DHT22;6816;48.506;9.050;2022-12-29T13:39:56;14.30;99.90
13488;DHT22;6816;48.506;9.050;2022-12-29T13:42:58;14.30;99.90
13488;DHT22;6816;48.506;9.050;2022-12-29T13:46:07;14.30;99.90
13488;DHT22;6816;48.506;9.050;2022-12-29T13:49:16;14.30;99.90
13488;DHT22;6816;48.506;9.050;2022-12-29T13:52:37;14.40;99.90
13488;DHT22;6816;48.506;9.050;2022-12-29T13:56:07;14.40;99.90
13488;DHT22;6816;48.506;9.050;2022-12-29T14:06:15;14.40;99.90
13488;DHT22;6816;48.506;9.050;2022-12-29T14:12:43;14.50;99.90
13488;DHT22;6816;48.506;9.050;2022-12-29T14:15:55;14.50;99.90
13488;DHT22;6816;48.506;9.050;2022-12-29T14:22:26;14.60;99.90
13488;DHT22;6816;48.506;9.050;2022-12-29T14:25:53;14.50;99.90
13488;DHT22;6816;48.506;9.050;2022-12-29T14:28:55;14.50;99.90
13488;DHT22;6816;48.506;9.050;2022-12-29T14:31:56;14.40;99.90
13488;DHT22;6816;48.506;9.050;2022-12-29T14:35:00;14.30;99.90
13488;DHT22;6816;48.506;9.050;2022-12-29T14:38:28;14.20;99.90
13488;DHT22;6816;48.506;9.050;2022-12-29T14:41:33;14.10;99.90
13488;DHT22;6816;48.506;9.050;2022-12-29T14:44:53;14.10;99.90
13488;DHT22;6816;48.506;9.050;2022-12-29T14:47:56;14.00;99.90
13488;DHT22;6816;48.506;9.050;2022-12-29T14:50:57;13.90;99.90
13488;DHT22;6816;48.506;9.050;2022-12-29T14:53:58;13.80;99.90
13488;DHT22;6816;48.506;9.050;2022-12-29T14:57:03;13.80;99.90
13488;DHT22;6816;48.506;9.050;2022-12-29T15:00:30;13.70;99.90
13488;DHT22;6816;48.506;9.050;2022-12-29T15:03:32;13.60;99.90
13488;DHT22;6816;48.506;9.050;2022-12-29T15:06:37;13.50;99.90
13488;DHT22;6816;48.506;9.050;2022-12-29T15:09:43;13.50;99.90
13488;DHT22;6816;48.506;9.050;2022-12-29T15:13:00;13.40;99.90
13488;DHT22;6816;48.506;9.050;2022-12-29T15:16:03;13.40;99.90
13488;DHT22;6816;48.506;9.050;2022-12-29T15:19:21;13.30;99.90
13488;DHT22;6816;48.506;9.050;2022-12-29T15:22:22;13.30;99.90
13488;DHT22;6816;48.506;9.050;2022-12-29T15:25:24;13.20;99.90
13488;DHT22;6816;48.506;9.050;2022-12-29T15:28:27;13.10;99.90
13488;DHT22;6816;48.506;9.050;2022-12-29T15:31:28;13.00;99.90
13488;DHT22;6816;48.506;9.050;2022-12-29T15:34:30;13.00;99.90
13488;DHT22;6816;48.506;9.050;2022-12-29T15:37:34;12.90;99.90
13488;DHT22;6816;48.506;9.050;2022-12-29T15:40:38;12.80;99.90
13488;DHT22;6816;48.506;9.050;2022-12-29T15:47:23;12.70;99.90
13488;DHT22;6816;48.506;9.050;2022-12-29T15:50:32;12.60;99.90
13488;DHT22;6816;48.506;9.050;2022-12-29T15:53:34;12.60;99.90
13488;DHT22;6816;48.506;9.050;2022-12-29T15:56:34;12.40;99.90
13488;DHT22;6816;48.506;9.050;2022-12-29T15:59:35;12.30;99.90
13488;DHT22;6816;48.506;9.050;2022-12-29T16:02:36;12.30;99.90
13488;DHT22;6816;48.506;9.050;2022-12-29T16:05:38;12.20;99.90
13488;DHT22;6816;48.506;9.050;2022-12-29T16:08:40;12.10;99.90
13488;DHT22;6816;48.506;9.050;2022-12-29T16:11:53;12.00;99.90
13488;DHT22;6816;48.506;9.050;2022-12-29T16:14:59;12.00;99.90
13488;DHT22;6816;48.506;9.050;2022-12-29T16:18:01;12.00;99.90
13488;DHT22;6816;48.506;9.050;2022-12-29T16:21:04;11.90;99.90
13488;DHT22;6816;48.506;9.050;2022-12-29T16:24:13;11.80;99.90
13488;DHT22;6816;48.506;9.050;2022-12-29T16:27:22;11.80;99.90
13488;DHT22;6816;48.506;9.050;2022-12-29T16:30:27;11.80;99.90
13488;DHT22;6816;48.506;9.050;2022-12-29T16:33:44;11.70;99.90
13488;DHT22;6816;48.506;9.050;2022-12-29T16:37:05;11.60;99.90
13488;DHT22;6816;48.506;9.050;2022-12-29T16:43:34;11.50;99.90
13488;DHT22;6816;48.506;9.050;2022-12-29T16:46:37;11.50;99.90
13488;DHT22;6816;48.506;9.050;2022-12-29T16:49:49;11.40;99.90
13488;DHT22;6816;48.506;9.050;2022-12-29T16:52:51;11.40;99.90
13488;DHT22;6816;48.506;9.050;2022-12-29T16:55:53;11.40;99.90
13488;DHT22;6816;48.506;9.050;2022-12-29T17:02:34;11.30;99.90
13488;DHT22;6816;48.506;9.050;2022-12-29T17:05:45;11.20;99.90
13488;DHT22;6816;48.506;9.050;2022-12-29T17:08:46;11.20;99.90
13488;DHT22;6816;48.506;9.050;2022-12-29T17:11:49;11.10;99.90
13488;DHT22;6816;48.506;9.050;2022-12-29T17:15:04;11.10;99.90
13488;DHT22;6816;48.506;9.050;2022-12-29T17:18:08;11.00;99.90
13488;DHT22;6816;48.506;9.050;2022-12-29T17:21:10;10.90;99.90
13488;DHT22;6816;48.506;9.050;2022-12-29T17:24:18;10.90;99.90
13488;DHT22;6816;48.506;9.050;2022-12-29T17:27:26;10.90;99.90
13488;DHT22;6816;48.506;9.050;2022-12-29T17:30:28;10.80;99.90
13488;DHT22;6816;48.506;9.050;2022-12-29T17:33:34;10.70;99.90
13488;DHT22;6816;48.506;9.050;2022-12-29T17:36:36;10.80;99.90
13488;DHT22;6816;48.506;9.050;2022-12-29T17:39:36;10.80;99.90
13488;DHT22;6816;48.506;9.050;2022-12-29T17:42:44;10.70;99.90
13488;DHT22;6816;48.506;9.050;2022-12-29T17:45:53;10.70;99.90
13488;DHT22;6816;48.506;9.050;2022-12-29T17:48:54;10.70;99.90
13488;DHT22;6816;48.506;9.050;2022-12-29T17:51:56;10.60;99.90
13488;DHT22;6816;48.506;9.050;2022-12-29T17:54:57;10.70;99.90
13488;DHT22;6816;48.506;9.050;2022-12-29T17:57:57;10.60;99.90
13488;DHT22;6816;48.506;9.050;2022-12-29T18:01:00;10.70;99.90
13488;DHT22;6816;48.506;9.050;2022-12-29T18:04:01;10.60;99.90
13488;DHT22;6816;48.506;9.050;2022-12-29T18:07:08;10.60;99.90
13488;DHT22;6816;48.506;9.050;2022-12-29T18:10:10;10.60;99.90
13488;DHT22;6816;48.506;9.050;2022-12-29T18:13:37;10.60;99.90
13488;DHT22;6816;48.506;9.050;2022-12-29T18:16:38;10.70;99.90
13488;DHT22;6816;48.506;9.050;2022-12-29T18:19:39;10.50;99.90
13488;DHT22;6816;48.506;9.050;2022-12-29T18:22:40;10.50;99.90
13488;DHT22;6816;48.506;9.050;2022-12-29T18:25:45;10.50;99.90
13488;DHT22;6816;48.506;9.050;2022-12-29T18:28:47;10.50;99.90
13488;DHT22;6816;48.506;9.050;2022-12-29T18:31:49;10.50;99.90
13488;DHT22;6816;48.506;9.050;2022-12-29T18:34:50;10.50;99.90
13488;DHT22;6816;48.506;9.050;2022-12-29T18:37:51;10.50;99.90
13488;DHT22;6816;48.506;9.050;2022-12-29T18:40:52;10.50;99.90
13488;DHT22;6816;48.506;9.050;2022-12-29T18:43:53;10.50;99.90
13488;DHT22;6816;48.506;9.050;2022-12-29T18:46:53;10.50;99.90
13488;DHT22;6816;48.506;9.050;2022-12-29T18:49:54;10.50;99.90
13488;DHT22;6816;48.506;9.050;2022-12-29T18:52:55;10.50;99.90
13488;DHT22;6816;48.506;9.050;2022-12-29T18:55:55;10.50;99.90
13488;DHT22;6816;48.506;9.050;2022-12-29T18:58:56;10.50;99.90
13488;DHT22;6816;48.506;9.050;2022-12-29T19:01:57;10.50;99.90
13488;DHT22;6816;48.506;9.050;2022-12-29T19:04:58;10.50;99.90
13488;DHT22;6816;48.506;9.050;2022-12-29T19:07:59;10.50;99.90
13488;DHT22;6816;48.506;9.050;2022-12-29T19:11:00;10.50;99.90
13488;DHT22;6816;48.506;9.050;2022-12-29T19:14:00;10.70;99.90
13488;DHT22;6816;48.506;9.050;2022-12-29T19:17:01;10.60;99.90
13488;DHT22;6816;48.506;9.050;2022-12-29T19:20:02;10.60;99.90
13488;DHT22;6816;48.506;9.050;2022-12-29T19:23:12;10.60;99.90
13488;DHT22;6816;48.506;9.050;2022-12-29T19:26:40;10.60;99.90
13488;DHT22;6816;48.506;9.050;2022-12-29T19:29:40;10.70;99.90
13488;DHT22;6816;48.506;9.050;2022-12-29T19:32:42;10.70;99.90
13488;DHT22;6816;48.506;9.050;2022-12-29T19:35:43;10.70;99.90
13488;DHT22;6816;48.506;9.050;2022-12-29T19:38:44;10.70;99.90
13488;DHT22;6816;48.506;9.050;2022-12-29T19:41:45;10.70;99.90
13488;DHT22;6816;48.506;9.050;2022-12-29T19:44:46;10.70;99.90
13488;DHT22;6816;48.506;9.050;2022-12-29T19:47:46;10.70;99.90
13488;DHT22;6816;48.506;9.050;2022-12-29T19:50:47;10.70;99.90
13488;DHT22;6816;48.506;9.050;2022-12-29T19:53:47;10.80;99.90
13488;DHT22;6816;48.506;9.050;2022-12-29T19:56:48;10.80;99.90
13488;DHT22;6816;48.506;9.050;2022-12-29T19:59:49;10.80;99.90
13488;DHT22;6816;48.506;9.050;2022-12-29T20:02:50;10.90;99.90
13488;DHT22;6816;48.506;9.050;2022-12-29T20:05:50;10.90;99.90
13488;DHT22;6816;48.506;9.050;2022-12-29T20:08:52;10.90;99.90
13488;DHT22;6816;48.506;9.050;2022-12-29T20:11:52;10.90;99.90
13488;DHT22;6816;48.506;9.050;2022-12-29T20:14:53;10.90;99.90
13488;DHT22;6816;48.506;9.050;2022-12-29T20:17:54;11.00;99.90
13488;DHT22;6816;48.506;9.050;2022-12-29T20:21:04;11.00;99.90
13488;DHT22;6816;48.506;9.050;2022-12-29T20:24:05;11.00;99.90
13488;DHT22;6816;48.506;9.050;2022-12-29T20:27:07;11.00;99.90
13488;DHT22;6816;48.506;9.050;2022-12-29T20:30:08;11.00;99.90
13488;DHT22;6816;48.506;9.050;2022-12-29T20:33:09;10.90;99.90
13488;DHT22;6816;48.506;9.050;2022-12-29T20:36:16;10.80;99.90
13488;DHT22;6816;48.506;9.050;2022-12-29T20:39:18;10.70;99.90
13488;DHT22;6816;48.506;9.050;2022-12-29T20:42:19;10.60;99.90
13488;DHT22;6816;48.506;9.050;2022-12-29T20:45:20;10.50;99.90
13488;DHT22;6816;48.506;9.050;2022-12-29T20:48:21;10.50;99.90
13488;DHT22;6816;48.506;9.050;2022-12-29T20:51:22;10.40;99.90
13488;DHT22;6816;48.506;9.050;2022-12-29T20:54:23;10.40;99.90
13488;DHT22;6816;48.506;9.050;2022-12-29T20:57:23;10.30;99.90
13488;DHT22;6816;48.506;9.050;2022-12-29T21:00:24;10.30;99.90
13488;DHT22;6816;48.506;9.050;2022-12-29T21:03:25;10.30;99.90
13488;DHT22;6816;48.506;9.050;2022-12-29T21:06:26;10.30;99.90
13488;DHT22;6816;48.506;9.050;2022-12-29T21:09:26;10.20;99.90
13488;DHT22;6816;48.506;9.050;2022-12-29T21:12:27;10.20;99.90
13488;DHT22;6816;48.506;9.050;2022-12-29T21:15:27;10.20;99.90
13488;DHT22;6816;48.506;9.050;2022-12-29T21:18:29;10.20;99.90
13488;DHT22;6816;48.506;9.050;2022-12-29T21:21:30;10.10;99.90
13488;DHT22;6816;48.506;9.050;2022-12-29T21:24:30;10.10;99.90
13488;DHT22;6816;48.506;9.050;2022-12-29T21:27:32;10.10;99.90
13488;DHT22;6816;48.506;9.050;2022-12-29T21:30:33;10.10;99.90
13488;DHT22;6816;48.506;9.050;2022-12-29T21:33:34;10.00;99.90
13488;DHT22;6816;48.506;9.050;2022-12-29T21:36:36;10.00;99.90
13488;DHT22;6816;48.506;9.050;2022-12-29T21:39:37;10.00;99.90
13488;DHT22;6816;48.506;9.050;2022-12-29T21:42:38;10.00;99.90
13488;DHT22;6816;48.506;9.050;2022-12-29T21:45:38;10.00;99.90